C2 — ZCYD3 — position and weather

sailwx.info

Track history (hours):
 
Tides and Currents Weather Stations Pressure Air Temp Water Temp Dewpoint Dewpoint Depression Visibility Wind Speed Wind Dir Waves Ship Positions

C2

Last reported at 2018-Apr-16 14:32 UTC. Time now 2018-Apr-22 10:55 UTC.
Position N 38°03' W 000°04'.

Length 79 m; draft 3.4 m.

Type: Pleasure craft. MMSI: 319268000.

Date/timePositionNaut miles runAvg speedWind from/ knotsBaromVisibWave heightAir tempDewpointWater temp
2018-Apr-16 14:32N 38°03' W 000°04'014.5
2018-Apr-16 14:31N 38°03' W 000°04'2214.6
2018-Apr-16 13:02N 37°45' W 000°20'014.7
2018-Apr-16 13:00N 37°45' W 000°20'714.8
2018-Apr-16 12:31N 37°39' W 000°25'714.3
2018-Apr-16 12:00N 37°33' W 000°31'1315.0
2018-Apr-16 11:06N 37°24' W 000°44'21714.0
2018-Apr-15 19:36N 36°07' W 004°56'1 8.7
2018-Apr-15 19:30N 36°07' W 004°57'816.2
2018-Apr-15 19:00N 36°06' W 005°08'815.9
2018-Apr-15 18:30N 36°05' W 005°17'5 1.4
2018-Apr-15 14:56N 36°09' W 005°22'0 0.0
2018-Apr-15 14:26N 36°09' W 005°22'0 0.0
2018-Apr-15 13:44N 36°09' W 005°22'0 0.0
2018-Apr-15 13:26N 36°09' W 005°22'0 0.0
2018-Apr-15 12:56N 36°09' W 005°22'1 0.3
2018-Apr-15 10:05N 36°08' W 005°22'0 0.7
2018-Apr-15 09:59N 36°08' W 005°22'2 5.1
2018-Apr-15 09:30N 36°05' W 005°22'  
Track history (hours):
 
Tides and Currents Weather Stations Pressure Air Temp Water Temp Dewpoint Dewpoint Depression Visibility Wind Speed Wind Dir Waves Ship Positions

C2

Last reported at 2018-Apr-16 14:32 UTC. Time now 2018-Apr-22 10:55 UTC.
Position N 38°03' W 000°04'.

Length 79 m; draft 3.4 m.

Type: Pleasure craft. MMSI: 319268000.

Date/timePositionNaut miles runAvg speedWind from/ knotsBaromVisibWave heightAir tempDewpointWater temp
2018-Apr-16 14:32N 38°03' W 000°04'014.5
2018-Apr-16 14:31N 38°03' W 000°04'2214.6
2018-Apr-16 13:02N 37°45' W 000°20'014.7
2018-Apr-16 13:00N 37°45' W 000°20'714.8
2018-Apr-16 12:31N 37°39' W 000°25'714.3
2018-Apr-16 12:00N 37°33' W 000°31'1315.0
2018-Apr-16 11:06N 37°24' W 000°44'21714.0
2018-Apr-15 19:36N 36°07' W 004°56'1 8.7
2018-Apr-15 19:30N 36°07' W 004°57'816.2
2018-Apr-15 19:00N 36°06' W 005°08'815.9
2018-Apr-15 18:30N 36°05' W 005°17'5 1.4
2018-Apr-15 14:56N 36°09' W 005°22'0 0.0
2018-Apr-15 14:26N 36°09' W 005°22'0 0.0
2018-Apr-15 13:44N 36°09' W 005°22'0 0.0
2018-Apr-15 13:26N 36°09' W 005°22'0 0.0
2018-Apr-15 12:56N 36°09' W 005°22'1 0.3
2018-Apr-15 10:05N 36°08' W 005°22'0 0.7
2018-Apr-15 09:59N 36°08' W 005°22'2 5.1
2018-Apr-15 09:30N 36°05' W 005°22'  

Dump ship's entire track history